createdAt,value
2023-05-18T00:01:48.792Z,5.43
2023-05-18T00:04:17.311Z,4.72
2023-05-18T00:06:45.059Z,4.75
2023-05-18T00:09:12.791Z,5.38
2023-05-18T00:11:41.905Z,4.55
2023-05-18T00:14:09.735Z,5.72
2023-05-18T00:16:37.622Z,5.20
2023-05-18T00:19:05.548Z,5.10
2023-05-18T00:21:33.701Z,4.78
2023-05-18T00:24:01.498Z,5.60
2023-05-18T00:26:29.148Z,5.30
2023-05-18T00:28:58.229Z,6.45
2023-05-18T00:31:26.284Z,5.30
2023-05-18T00:33:54.089Z,5.80
2023-05-18T00:36:21.987Z,5.00
2023-05-18T00:38:49.699Z,4.40
2023-05-18T00:41:17.435Z,4.18
2023-05-18T00:43:45.160Z,5.18
2023-05-18T00:46:14.426Z,5.22
2023-05-18T00:48:42.242Z,4.93
2023-05-18T00:51:10.093Z,6.40
2023-05-18T00:53:38.104Z,5.90
2023-05-18T00:56:06.505Z,5.28
2023-05-18T00:58:34.494Z,5.45
2023-05-18T01:01:03.048Z,5.60
2023-05-18T01:03:32.241Z,5.15
2023-05-18T01:06:00.179Z,4.30
2023-05-18T01:08:29.174Z,6.22
2023-05-18T01:11:03.402Z,5.43
2023-05-18T01:13:40.121Z,5.10
2023-05-18T01:16:12.958Z,5.68
2023-05-18T01:18:48.910Z,5.45
2023-05-18T01:21:25.597Z,5.53
2023-05-18T01:24:15.946Z,5.28
2023-05-18T01:26:46.355Z,5.40
2023-05-18T01:29:15.269Z,5.15
2023-05-18T01:31:43.086Z,5.40
2023-05-18T01:34:10.871Z,5.60
2023-05-18T01:36:38.605Z,5.50
2023-05-18T01:39:06.360Z,5.88
2023-05-18T01:41:39.232Z,5.60
2023-05-18T01:44:15.738Z,4.93
2023-05-18T01:46:52.477Z,5.03
2023-05-18T01:49:36.849Z,5.47
2023-05-18T01:52:11.214Z,5.55
2023-05-18T01:54:42.905Z,5.90
2023-05-18T01:57:11.328Z,6.07
2023-05-18T01:59:41.483Z,5.45
2023-05-18T02:02:09.674Z,5.40
2023-05-18T02:04:37.454Z,5.20
2023-05-18T02:07:06.099Z,6.38
2023-05-18T02:09:33.821Z,5.32
2023-05-18T02:12:01.556Z,5.50
2023-05-18T02:14:29.314Z,5.00
2023-05-18T02:16:58.378Z,5.68
2023-05-18T02:19:26.315Z,5.40
2023-05-18T02:21:54.094Z,6.05
2023-05-18T02:24:23.113Z,6.85
2023-05-18T02:26:51.700Z,5.97
2023-05-18T02:29:19.506Z,6.38
2023-05-18T02:31:47.315Z,5.50
2023-05-18T02:34:17.086Z,5.65
2023-05-18T02:36:46.246Z,6.07
2023-05-18T02:39:14.000Z,5.28
2023-05-18T02:41:41.723Z,5.50
2023-05-18T02:44:09.508Z,5.53
2023-05-18T02:46:37.247Z,5.95
2023-05-18T02:49:04.982Z,5.70
2023-05-18T02:51:34.047Z,6.68
2023-05-18T02:54:01.789Z,5.80
2023-05-18T02:56:29.611Z,5.78
2023-05-18T02:58:58.315Z,6.68
2023-05-18T03:01:27.340Z,5.50
2023-05-18T03:03:57.778Z,7.60
2023-05-18T03:06:26.576Z,6.60
2023-05-18T03:08:56.037Z,6.80
2023-05-18T03:11:24.103Z,6.55
2023-05-18T03:13:51.857Z,7.20
2023-05-18T03:16:19.802Z,6.60
2023-05-18T03:18:47.650Z,5.18
2023-05-18T03:21:15.476Z,6.40
2023-05-18T03:23:43.324Z,6.00
2023-05-18T03:26:12.485Z,5.80
2023-05-18T03:28:40.674Z,6.25
2023-05-18T03:31:08.501Z,6.30
2023-05-18T03:33:36.298Z,7.60
2023-05-18T03:36:05.649Z,6.30
2023-05-18T03:38:33.375Z,6.40
2023-05-18T03:41:01.145Z,6.82
2023-05-18T03:43:32.421Z,6.82
2023-05-18T03:46:00.274Z,7.25
2023-05-18T03:48:28.511Z,6.78
2023-05-18T03:50:56.320Z,7.97
2023-05-18T03:53:24.081Z,7.75
2023-05-18T03:55:52.349Z,8.27
2023-05-18T03:58:20.643Z,6.90
2023-05-18T04:00:50.218Z,7.70
2023-05-18T04:03:18.151Z,6.80
2023-05-18T04:05:46.019Z,6.80
2023-05-18T04:08:14.672Z,6.38
2023-05-18T04:10:43.207Z,6.43
2023-05-18T04:13:11.053Z,7.57
2023-05-18T04:15:39.008Z,7.35
2023-05-18T04:18:08.327Z,7.38
2023-05-18T04:20:38.010Z,7.75
2023-05-18T04:23:06.134Z,7.13
2023-05-18T04:25:33.865Z,7.88
2023-05-18T04:28:02.545Z,7.47
2023-05-18T04:30:30.424Z,7.60
2023-05-18T04:33:00.287Z,7.15
2023-05-18T04:35:31.826Z,7.32
2023-05-18T04:37:59.968Z,7.60
2023-05-18T04:40:27.725Z,7.68
2023-05-18T04:42:55.512Z,7.88
2023-05-18T04:45:26.182Z,6.97
2023-05-18T04:47:54.621Z,7.95
2023-05-18T04:50:24.575Z,7.95
2023-05-18T04:52:57.807Z,7.40
2023-05-18T04:55:27.987Z,8.13
2023-05-18T04:57:57.257Z,8.02
2023-05-18T05:00:26.559Z,8.05
2023-05-18T05:02:55.232Z,8.57
2023-05-18T05:05:23.254Z,6.72
2023-05-18T05:07:51.415Z,7.00
2023-05-18T05:10:21.722Z,8.23
2023-05-18T05:12:50.200Z,8.93
2023-05-18T05:15:18.485Z,8.18
2023-05-18T05:17:47.927Z,7.78
2023-05-18T05:20:16.124Z,7.75
2023-05-18T05:22:44.044Z,7.65
2023-05-18T05:25:12.381Z,7.95
2023-05-18T05:27:41.680Z,8.45
2023-05-18T05:30:10.375Z,8.27
2023-05-18T05:32:38.294Z,6.70
2023-05-18T05:35:07.277Z,6.32
2023-05-18T05:37:35.537Z,5.55
2023-05-18T05:40:06.312Z,6.28
2023-05-18T05:42:34.127Z,6.93
2023-05-18T05:45:03.322Z,6.85
2023-05-18T05:47:31.262Z,5.60
2023-05-18T05:50:00.219Z,6.13
2023-05-18T05:52:28.765Z,5.25
2023-05-18T05:54:56.682Z,5.70
2023-05-18T05:57:24.453Z,5.50
2023-05-18T05:59:52.245Z,4.88
2023-05-18T06:02:21.631Z,5.68
2023-05-18T06:04:49.371Z,5.65
2023-05-18T06:07:17.086Z,5.00
2023-05-18T06:09:47.921Z,5.35
2023-05-18T06:12:15.816Z,5.10
2023-05-18T06:14:43.886Z,5.00
2023-05-18T06:17:11.710Z,5.45
2023-05-18T06:19:41.153Z,5.00
2023-05-18T06:22:08.916Z,5.50
2023-05-18T06:24:36.663Z,5.60
2023-05-18T06:27:05.462Z,4.65
2023-05-18T06:29:33.253Z,5.18
2023-05-18T06:32:01.670Z,6.05
2023-05-18T06:34:29.579Z,4.80
2023-05-18T06:36:59.097Z,5.32
2023-05-18T06:39:26.775Z,4.93
2023-05-18T06:41:54.522Z,4.70
2023-05-18T06:44:22.219Z,5.35
2023-05-18T06:46:49.954Z,4.30
2023-05-18T06:49:17.818Z,4.38
2023-05-18T06:51:46.023Z,4.97
2023-05-18T06:54:15.211Z,5.03
2023-05-18T06:56:43.337Z,4.82
2023-05-18T06:59:11.097Z,4.63
2023-05-18T07:01:38.966Z,4.50
2023-05-18T07:04:06.984Z,4.82
2023-05-18T07:06:34.810Z,4.90
2023-05-18T07:09:03.384Z,4.23
2023-05-18T07:11:32.455Z,4.63
2023-05-18T07:14:00.200Z,4.43
2023-05-18T07:16:28.612Z,3.80
2023-05-18T07:18:57.964Z,4.10
2023-05-18T07:21:26.382Z,4.07
2023-05-18T07:23:54.220Z,4.50
2023-05-18T07:26:23.440Z,4.30
2023-05-18T07:28:52.626Z,4.70
2023-05-18T07:31:21.779Z,4.43
2023-05-18T07:33:49.802Z,4.83
2023-05-18T07:36:17.542Z,4.20
2023-05-18T07:38:45.622Z,4.60
2023-05-18T07:41:13.436Z,4.33
2023-05-18T07:43:41.240Z,4.20
2023-05-18T07:46:10.387Z,3.63
2023-05-18T07:48:40.556Z,4.20
2023-05-18T07:51:08.884Z,4.40
2023-05-18T07:53:37.878Z,4.23
2023-05-18T07:56:07.005Z,4.30
2023-05-18T07:58:35.017Z,4.33
2023-05-18T08:01:02.725Z,4.30
2023-05-18T08:03:32.031Z,4.20
2023-05-18T08:06:00.261Z,4.30
2023-05-18T08:08:28.837Z,3.83
2023-05-18T08:10:56.574Z,4.17
2023-05-18T08:13:24.351Z,4.90
2023-05-18T08:16:02.902Z,3.93
2023-05-18T08:18:40.085Z,3.80
2023-05-18T08:21:09.442Z,4.47
2023-05-18T08:23:37.898Z,4.53
2023-05-18T08:26:05.798Z,3.97
2023-05-18T08:28:33.655Z,4.17
2023-05-18T08:31:01.452Z,4.10
2023-05-18T08:33:29.471Z,4.57
2023-05-18T08:35:58.618Z,4.67
2023-05-18T08:38:26.375Z,4.30
2023-05-18T08:41:02.563Z,4.17
2023-05-18T08:43:34.341Z,4.00
2023-05-18T08:46:08.516Z,5.10
2023-05-18T08:48:38.937Z,4.50
2023-05-18T08:51:11.108Z,3.73
2023-05-18T08:53:40.224Z,4.57
2023-05-18T08:56:11.388Z,4.57
2023-05-18T08:58:46.568Z,4.10
2023-05-18T09:01:15.452Z,4.00
2023-05-18T09:03:43.576Z,3.80
2023-05-18T09:06:12.853Z,4.00
2023-05-18T09:08:41.811Z,3.57
2023-05-18T09:11:09.721Z,3.60
2023-05-18T09:13:37.467Z,3.70
2023-05-18T09:16:05.443Z,4.13
2023-05-18T09:18:33.245Z,4.50
2023-05-18T09:21:01.049Z,4.50
2023-05-18T09:23:30.332Z,4.37
2023-05-18T09:25:58.644Z,5.57
2023-05-18T09:28:34.384Z,4.27
2023-05-18T09:31:02.107Z,4.07
2023-05-18T09:33:35.335Z,4.73
2023-05-18T09:36:05.229Z,4.10
2023-05-18T09:38:38.157Z,4.00
2023-05-18T09:41:10.804Z,3.90
2023-05-18T09:43:38.747Z,3.80
2023-05-18T09:46:08.401Z,3.90
2023-05-18T09:48:37.272Z,5.13
2023-05-18T09:51:06.699Z,4.03
2023-05-18T09:53:38.373Z,4.07
2023-05-18T09:56:09.475Z,4.10
2023-05-18T09:58:37.348Z,4.23
2023-05-18T10:01:05.387Z,3.87
2023-05-18T10:03:36.870Z,3.80
2023-05-18T10:06:07.013Z,4.23
2023-05-18T10:08:35.545Z,4.00
2023-05-18T10:11:05.204Z,4.23
2023-05-18T10:13:34.573Z,4.23
2023-05-18T10:16:04.099Z,3.70
2023-05-18T10:18:33.235Z,3.77
2023-05-18T10:21:02.483Z,4.30
2023-05-18T10:23:33.402Z,3.93
2023-05-18T10:26:01.566Z,3.60
2023-05-18T10:28:44.192Z,3.53
2023-05-18T10:31:12.039Z,4.70
2023-05-18T10:33:39.843Z,3.80
2023-05-18T10:36:10.090Z,3.77
2023-05-18T10:38:39.721Z,4.00
2023-05-18T10:41:08.780Z,4.00
2023-05-18T10:43:38.602Z,3.80
2023-05-18T10:46:08.616Z,4.77
2023-05-18T10:48:40.509Z,3.77
2023-05-18T10:51:09.222Z,3.90
2023-05-18T10:53:37.816Z,3.43
2023-05-18T10:56:08.011Z,4.07
2023-05-18T10:58:39.937Z,3.90
2023-05-18T11:01:10.951Z,3.73
2023-05-18T11:03:41.285Z,3.80
2023-05-18T11:06:14.794Z,3.90
2023-05-18T11:08:48.994Z,3.23
2023-05-18T11:11:19.451Z,4.30
2023-05-18T11:13:52.137Z,4.03
2023-05-18T11:16:21.189Z,3.77
2023-05-18T11:18:51.433Z,3.90
2023-05-18T11:21:21.225Z,3.87
2023-05-18T11:24:14.522Z,4.00
2023-05-18T11:26:42.907Z,3.70
2023-05-18T11:29:24.072Z,3.80
2023-05-18T11:31:54.417Z,3.67
2023-05-18T11:34:44.715Z,4.90
2023-05-18T11:37:16.932Z,4.23
2023-05-18T11:39:59.681Z,3.53
2023-05-18T11:42:33.389Z,3.60
2023-05-18T11:45:11.707Z,3.70
2023-05-18T11:47:41.463Z,2.97
2023-05-18T11:50:11.956Z,3.47
2023-05-18T11:52:49.866Z,3.23
2023-05-18T11:55:20.026Z,3.37
2023-05-18T11:57:52.246Z,3.13
2023-05-18T12:00:22.425Z,3.50
2023-05-18T12:02:52.830Z,2.80
2023-05-18T12:05:21.084Z,3.33
2023-05-18T12:07:53.719Z,3.00
2023-05-18T12:10:23.062Z,4.43
2023-05-18T12:12:53.667Z,3.20
2023-05-18T12:15:25.677Z,4.40
2023-05-18T12:17:53.472Z,3.40
2023-05-18T12:20:22.972Z,3.87
2023-05-18T12:22:53.170Z,3.60
2023-05-18T12:25:22.063Z,3.53
2023-05-18T12:27:50.482Z,3.53
2023-05-18T12:30:19.944Z,3.50
2023-05-18T12:32:51.609Z,3.63
2023-05-18T12:35:24.541Z,3.70
2023-05-18T12:37:52.505Z,3.37
2023-05-18T12:40:21.383Z,3.30
2023-05-18T12:42:56.488Z,3.70
2023-05-18T12:45:27.833Z,3.73
2023-05-18T12:47:57.482Z,3.50
2023-05-18T12:50:26.809Z,2.87
2023-05-18T12:52:55.959Z,2.73
2023-05-18T12:55:25.244Z,3.00
2023-05-18T12:58:01.784Z,3.13
2023-05-18T13:00:33.791Z,3.40
2023-05-18T13:03:08.958Z,3.40
2023-05-18T13:05:38.617Z,3.30
2023-05-18T13:08:07.047Z,3.10
2023-05-18T13:10:35.268Z,3.57
2023-05-18T13:13:04.275Z,3.27
2023-05-18T13:15:35.823Z,3.27
2023-05-18T13:18:05.330Z,2.77
2023-05-18T13:20:41.362Z,3.07
2023-05-18T13:23:11.462Z,3.10
2023-05-18T13:25:39.413Z,3.40
2023-05-18T13:28:09.191Z,3.33
2023-05-18T13:30:37.334Z,3.77
2023-05-18T13:33:05.973Z,2.90
2023-05-18T13:35:34.078Z,3.00
2023-05-18T13:38:03.521Z,2.90
2023-05-18T13:40:31.970Z,2.60
2023-05-18T13:42:59.765Z,2.90
2023-05-18T13:45:27.509Z,3.40
2023-05-18T13:47:55.248Z,3.40
2023-05-18T13:50:23.281Z,3.10
2023-05-18T13:52:51.169Z,3.13
2023-05-18T13:55:20.573Z,2.40
2023-05-18T13:57:48.402Z,2.73
2023-05-18T14:00:17.423Z,2.80
2023-05-18T14:02:46.223Z,2.50
2023-05-18T14:05:14.863Z,2.80
2023-05-18T14:07:43.827Z,3.70
2023-05-18T14:10:13.689Z,3.10
2023-05-18T14:12:43.443Z,2.83
2023-05-18T14:15:13.774Z,3.20
2023-05-18T14:17:42.157Z,2.80
2023-05-18T14:20:10.937Z,2.90
2023-05-18T14:22:39.312Z,2.70
2023-05-18T14:25:07.856Z,3.60
2023-05-18T14:27:35.589Z,2.70
2023-05-18T14:30:06.268Z,3.10
2023-05-18T14:32:34.159Z,2.93
2023-05-18T14:35:01.914Z,2.73
2023-05-18T14:37:29.717Z,3.30
2023-05-18T14:39:57.431Z,2.60
2023-05-18T14:42:25.272Z,3.00
2023-05-18T14:44:53.087Z,2.97
2023-05-18T14:47:22.543Z,3.00
2023-05-18T14:49:50.514Z,2.50
2023-05-18T14:52:18.274Z,3.10
2023-05-18T14:54:47.771Z,3.80
2023-05-18T14:57:15.545Z,3.20
2023-05-18T14:59:43.963Z,3.10
2023-05-18T15:02:11.831Z,3.07
2023-05-18T15:04:41.976Z,3.00
2023-05-18T15:07:09.974Z,3.40
2023-05-18T15:09:38.378Z,2.87
2023-05-18T15:12:06.854Z,2.37
2023-05-18T15:14:34.595Z,3.10
2023-05-18T15:17:02.296Z,2.80
2023-05-18T15:19:30.244Z,2.97
2023-05-18T15:21:59.893Z,3.13
2023-05-18T15:24:27.853Z,3.13
2023-05-18T15:26:55.731Z,2.53
2023-05-18T15:29:24.475Z,2.60
2023-05-18T15:31:54.325Z,2.57
2023-05-18T15:34:22.341Z,4.10
2023-05-18T15:36:50.248Z,2.83
2023-05-18T15:39:19.405Z,2.77
2023-05-18T15:41:47.404Z,2.93
2023-05-18T15:44:15.270Z,2.70
2023-05-18T15:46:43.214Z,2.97
2023-05-18T15:49:11.050Z,2.50
2023-05-18T15:51:39.041Z,3.23
2023-05-18T15:54:06.939Z,3.97
2023-05-18T15:56:36.307Z,2.83
2023-05-18T15:59:04.099Z,2.60
2023-05-18T16:01:31.847Z,2.70
2023-05-18T16:03:59.791Z,2.90
2023-05-18T16:06:27.626Z,2.87
2023-05-18T16:08:55.986Z,2.77
2023-05-18T16:11:23.725Z,3.10
2023-05-18T16:13:56.949Z,3.57
2023-05-18T16:16:26.624Z,2.97
2023-05-18T16:18:54.693Z,2.90
2023-05-18T16:21:23.001Z,3.30
2023-05-18T16:23:50.792Z,5.80
2023-05-18T16:26:18.624Z,2.70
2023-05-18T16:28:46.664Z,3.50
2023-05-18T16:31:15.841Z,2.60
2023-05-18T16:33:43.788Z,3.30
2023-05-18T16:36:11.615Z,2.90
2023-05-18T16:38:39.584Z,3.20
2023-05-18T16:41:07.862Z,3.43
2023-05-18T16:43:36.450Z,2.73
2023-05-18T16:46:04.237Z,3.27
2023-05-18T16:48:33.326Z,3.03
2023-05-18T16:51:01.058Z,2.47
2023-05-18T16:53:29.036Z,2.90
2023-05-18T16:55:56.818Z,3.50
2023-05-18T16:58:24.527Z,3.30
2023-05-18T17:00:53.236Z,2.97
2023-05-18T17:03:21.757Z,2.80
2023-05-18T17:05:51.530Z,3.80
2023-05-18T17:08:19.264Z,3.77
2023-05-18T17:10:47.085Z,3.73
2023-05-18T17:13:14.784Z,3.00
2023-05-18T17:15:42.761Z,5.10
2023-05-18T17:18:10.986Z,4.67
2023-05-18T17:20:38.766Z,3.67
2023-05-18T17:23:07.879Z,3.10
2023-05-18T17:25:35.789Z,2.80
2023-05-18T17:28:03.499Z,2.70
2023-05-18T17:30:31.682Z,2.97
2023-05-18T17:32:59.612Z,2.80
2023-05-18T17:35:27.460Z,2.40
2023-05-18T17:37:55.791Z,3.13
2023-05-18T17:40:25.140Z,2.70
2023-05-18T17:42:52.951Z,3.10
2023-05-18T17:45:21.020Z,3.33
2023-05-18T17:47:48.801Z,3.00
2023-05-18T17:50:16.659Z,3.17
2023-05-18T17:52:44.597Z,3.60
2023-05-18T17:55:13.014Z,4.00
2023-05-18T17:57:45.493Z,3.17
2023-05-18T18:00:15.631Z,3.27
2023-05-18T18:02:43.589Z,3.37
2023-05-18T18:05:11.466Z,3.60
2023-05-18T18:07:40.127Z,3.90
2023-05-18T18:10:08.750Z,4.67
2023-05-18T18:12:36.533Z,4.40
2023-05-18T18:15:06.172Z,4.37
2023-05-18T18:17:34.516Z,3.77
2023-05-18T18:20:02.504Z,4.37
2023-05-18T18:22:30.279Z,3.10
2023-05-18T18:24:58.135Z,3.77
2023-05-18T18:27:26.046Z,4.20
2023-05-18T18:29:54.030Z,4.33
2023-05-18T18:32:23.282Z,4.20
2023-05-18T18:34:51.222Z,4.70
2023-05-18T18:37:19.097Z,4.57
2023-05-18T18:39:47.155Z,5.23
2023-05-18T18:42:18.689Z,4.57
2023-05-18T18:44:48.961Z,4.73
2023-05-18T18:47:16.753Z,4.40
2023-05-18T18:49:45.886Z,4.47
2023-05-18T18:52:14.010Z,4.67
2023-05-18T18:54:42.327Z,5.00
2023-05-18T18:57:12.049Z,4.80
2023-05-18T18:59:40.045Z,4.63
2023-05-18T19:02:07.985Z,4.90
2023-05-18T19:04:36.100Z,4.70
2023-05-18T19:07:06.055Z,5.20
2023-05-18T19:09:36.122Z,4.40
2023-05-18T19:12:04.106Z,4.90
2023-05-18T19:14:31.819Z,4.90
2023-05-18T19:17:00.385Z,4.47
2023-05-18T19:19:28.270Z,3.70
2023-05-18T19:21:56.296Z,4.03
2023-05-18T19:24:25.814Z,3.07
2023-05-18T19:26:53.629Z,3.27
2023-05-18T19:29:21.653Z,3.17
2023-05-18T19:31:49.567Z,3.40
2023-05-18T19:34:17.897Z,3.37
2023-05-18T19:36:48.151Z,3.80
2023-05-18T19:39:16.937Z,3.80
2023-05-18T19:41:46.449Z,4.10
2023-05-18T19:44:14.388Z,4.17
2023-05-18T19:46:42.475Z,4.13
2023-05-18T19:49:11.672Z,3.53
2023-05-18T19:51:39.720Z,4.20
2023-05-18T19:54:07.527Z,3.83
2023-05-18T19:56:35.950Z,4.40
2023-05-18T19:59:05.867Z,4.13
2023-05-18T20:01:33.984Z,3.80
2023-05-18T20:04:02.199Z,3.47
2023-05-18T20:06:31.806Z,3.20
2023-05-18T20:09:00.717Z,3.67
2023-05-18T20:11:28.503Z,4.30
2023-05-18T20:13:58.295Z,3.50
2023-05-18T20:16:29.460Z,3.67
2023-05-18T20:18:57.860Z,3.90
2023-05-18T20:21:26.373Z,3.13
2023-05-18T20:23:55.585Z,2.97
2023-05-18T20:26:24.039Z,3.00
2023-05-18T20:28:59.042Z,3.43
2023-05-18T20:31:28.302Z,3.10
2023-05-18T20:33:58.004Z,3.60
2023-05-18T20:36:27.388Z,4.87
2023-05-18T20:38:57.384Z,4.33
2023-05-18T20:41:26.050Z,3.90
2023-05-18T20:43:54.407Z,4.10
2023-05-18T20:46:25.093Z,4.00
2023-05-18T20:48:55.204Z,4.30
2023-05-18T20:51:24.741Z,3.80
2023-05-18T20:53:53.391Z,3.73
2023-05-18T20:56:22.074Z,4.37
2023-05-18T20:58:50.365Z,4.23
2023-05-18T21:01:21.048Z,4.43
2023-05-18T21:03:49.804Z,4.33
2023-05-18T21:06:19.178Z,4.60
2023-05-18T21:08:47.559Z,5.00
2023-05-18T21:11:15.723Z,4.30
2023-05-18T21:13:43.490Z,4.90
2023-05-18T21:16:11.504Z,4.60
2023-05-18T21:18:39.946Z,3.97
2023-05-18T21:21:07.854Z,3.73
2023-05-18T21:23:38.651Z,3.93
2023-05-18T21:26:07.114Z,3.83
2023-05-18T21:28:35.357Z,3.77
2023-05-18T21:31:04.435Z,3.73
2023-05-18T21:33:32.346Z,3.30
2023-05-18T21:36:01.764Z,3.60
2023-05-18T21:38:32.919Z,3.70
2023-05-18T21:41:03.754Z,4.60
2023-05-18T21:43:31.469Z,4.47
2023-05-18T21:45:59.553Z,3.73
2023-05-18T21:48:27.665Z,3.77
2023-05-18T21:50:55.663Z,3.63
2023-05-18T21:53:23.562Z,3.90
2023-05-18T21:55:54.855Z,3.90
2023-05-18T21:58:25.712Z,4.20
2023-05-18T22:00:53.986Z,4.40
2023-05-18T22:03:23.211Z,4.17
2023-05-18T22:05:51.109Z,5.63
2023-05-18T22:08:20.246Z,4.10
2023-05-18T22:10:48.513Z,4.77
2023-05-18T22:13:16.378Z,3.73
2023-05-18T22:15:46.669Z,3.97
2023-05-18T22:18:14.621Z,4.77
2023-05-18T22:20:42.601Z,4.50
2023-05-18T22:23:12.089Z,4.23
2023-05-18T22:25:40.360Z,4.10
2023-05-18T22:28:08.143Z,4.00
2023-05-18T22:30:35.945Z,3.37
2023-05-18T22:33:05.244Z,3.40
2023-05-18T22:35:36.738Z,3.60
2023-05-18T22:38:05.007Z,3.60
2023-05-18T22:40:33.123Z,3.73
2023-05-18T22:43:00.939Z,3.30
2023-05-18T22:45:28.849Z,3.40
2023-05-18T22:47:57.195Z,4.10
2023-05-18T22:50:27.590Z,3.60
2023-05-18T22:52:56.578Z,3.37
2023-05-18T22:55:24.326Z,3.33
2023-05-18T22:57:54.104Z,3.70
2023-05-18T23:00:22.269Z,3.50
2023-05-18T23:02:50.033Z,3.40
2023-05-18T23:05:18.852Z,3.80
2023-05-18T23:07:50.316Z,3.20
2023-05-18T23:10:18.580Z,3.30
2023-05-18T23:12:48.523Z,3.10
2023-05-18T23:15:16.982Z,3.50
2023-05-18T23:17:46.296Z,2.90
2023-05-18T23:20:14.210Z,3.57
2023-05-18T23:22:41.966Z,2.80
2023-05-18T23:25:11.287Z,3.60
2023-05-18T23:27:39.136Z,3.97
2023-05-18T23:30:08.232Z,4.10
2023-05-18T23:32:36.778Z,3.50
2023-05-18T23:35:05.635Z,3.10
2023-05-18T23:37:33.960Z,3.43
2023-05-18T23:40:03.322Z,3.27
2023-05-18T23:42:33.010Z,3.97
2023-05-18T23:45:01.512Z,2.93
2023-05-18T23:47:29.837Z,3.10
2023-05-18T23:49:58.126Z,2.67
2023-05-18T23:52:27.869Z,3.20
2023-05-18T23:54:58.579Z,3.03
2023-05-18T23:57:26.866Z,3.10
2023-05-18T23:59:56.924Z,3.07
